createdAt,value
2023-03-06T00:00:33.231Z,92720.78
2023-03-06T00:03:00.978Z,92715.06
2023-03-06T00:05:28.846Z,92719.59
2023-03-06T00:07:56.424Z,92721.41
2023-03-06T00:10:29.792Z,92726.34
2023-03-06T00:13:17.019Z,92723.97
2023-03-06T00:15:45.623Z,92730.91
2023-03-06T00:18:13.181Z,92727.34
2023-03-06T00:20:42.343Z,92727.50
2023-03-06T00:23:10.629Z,92724.56
2023-03-06T00:25:38.999Z,92728.50
2023-03-06T00:28:06.532Z,92724.72
2023-03-06T00:30:34.432Z,92725.94
2023-03-06T00:33:02.009Z,92728.31
2023-03-06T00:35:30.228Z,92727.91
2023-03-06T00:37:59.949Z,92727.06
2023-03-06T00:40:27.588Z,92723.47
2023-03-06T00:42:54.847Z,92728.25
2023-03-06T00:45:22.529Z,92717.16
2023-03-06T00:47:50.086Z,92711.50
2023-03-06T00:50:17.454Z,92709.97
2023-03-06T00:52:45.107Z,92708.72
2023-03-06T00:55:12.794Z,92707.16
2023-03-06T00:57:41.196Z,92712.56
2023-03-06T01:00:11.037Z,92707.03
2023-03-06T01:02:38.796Z,92706.56
2023-03-06T01:05:07.122Z,92709.91
2023-03-06T01:07:36.696Z,92701.25
2023-03-06T01:10:06.257Z,92701.81
2023-03-06T01:12:33.558Z,92703.91
2023-03-06T01:15:01.178Z,92697.00
2023-03-06T01:17:29.206Z,92699.59
2023-03-06T01:19:57.681Z,92708.72
2023-03-06T01:22:25.330Z,92709.13
2023-03-06T01:24:53.472Z,92718.25
2023-03-06T01:27:21.895Z,92712.88
2023-03-06T01:29:49.797Z,92716.78
2023-03-06T01:32:17.280Z,92720.13
2023-03-06T01:34:44.568Z,92711.06
2023-03-06T01:37:12.211Z,92710.25
2023-03-06T01:39:39.546Z,92712.41
2023-03-06T01:42:07.326Z,92703.91
2023-03-06T01:44:34.984Z,92711.41
2023-03-06T01:47:04.957Z,92709.25
2023-03-06T01:49:36.992Z,92710.12
2023-03-06T01:52:12.062Z,92703.38
2023-03-06T01:54:44.992Z,92709.88
2023-03-06T01:57:20.872Z,92708.31
2023-03-06T01:59:56.173Z,92707.50
2023-03-06T02:02:24.912Z,92705.56
2023-03-06T02:04:52.881Z,92700.94
2023-03-06T02:07:21.788Z,92706.31
2023-03-06T02:09:49.142Z,92707.66
2023-03-06T02:12:19.226Z,92701.50
2023-03-06T02:14:47.860Z,92706.25
2023-03-06T02:17:18.770Z,92710.66
2023-03-06T02:19:58.280Z,92714.50
2023-03-06T02:22:33.538Z,92717.13
2023-03-06T02:25:15.530Z,92720.94
2023-03-06T02:27:43.378Z,92717.16
2023-03-06T02:30:15.353Z,92720.16
2023-03-06T02:32:43.152Z,92723.72
2023-03-06T02:35:19.989Z,92719.78
2023-03-06T02:37:47.997Z,92719.19
2023-03-06T02:40:18.957Z,92725.59
2023-03-06T02:42:49.700Z,92728.38
2023-03-06T02:45:38.066Z,92732.25
2023-03-06T02:48:06.248Z,92726.06
2023-03-06T02:50:34.107Z,92720.47
2023-03-06T02:53:01.824Z,92733.16
2023-03-06T02:55:30.675Z,92736.53
2023-03-06T02:57:58.596Z,92731.38
2023-03-06T03:00:26.686Z,92737.97
2023-03-06T03:02:54.609Z,92739.53
2023-03-06T03:05:22.394Z,92740.03
2023-03-06T03:07:50.325Z,92736.91
2023-03-06T03:10:17.974Z,92737.50
2023-03-06T03:12:46.212Z,92739.13
2023-03-06T03:15:14.041Z,92737.16
2023-03-06T03:17:41.850Z,92739.84
2023-03-06T03:20:13.993Z,92738.31
2023-03-06T03:22:41.512Z,92742.38
2023-03-06T03:25:09.339Z,92741.00
2023-03-06T03:27:37.197Z,92730.31
2023-03-06T03:30:05.100Z,92731.84
2023-03-06T03:32:32.425Z,92738.19
2023-03-06T03:35:00.324Z,92737.78
2023-03-06T03:37:28.010Z,92735.59
2023-03-06T03:39:56.625Z,92742.56
2023-03-06T03:42:24.664Z,92748.78
2023-03-06T03:44:51.952Z,92755.25
2023-03-06T03:47:20.430Z,92751.31
2023-03-06T03:49:48.382Z,92752.56
2023-03-06T03:52:15.903Z,92751.31
2023-03-06T03:54:43.217Z,92754.16
2023-03-06T03:57:10.928Z,92743.25
2023-03-06T03:59:38.841Z,92742.78
2023-03-06T04:02:06.416Z,92755.53
2023-03-06T04:04:35.194Z,92754.06
2023-03-06T04:07:04.521Z,92753.66
2023-03-06T04:09:32.064Z,92758.06
2023-03-06T04:11:59.693Z,92761.25
2023-03-06T04:14:27.078Z,92755.56
2023-03-06T04:16:54.573Z,92749.91
2023-03-06T04:19:22.731Z,92747.00
2023-03-06T04:21:50.425Z,92753.53
2023-03-06T04:24:17.744Z,92763.50
2023-03-06T04:26:46.105Z,92763.25
2023-03-06T04:29:13.906Z,92763.13
2023-03-06T04:31:41.282Z,92757.94
2023-03-06T04:34:09.173Z,92768.81
2023-03-06T04:36:36.995Z,92765.66
2023-03-06T04:39:04.807Z,92767.94
2023-03-06T04:41:32.733Z,92769.09
2023-03-06T04:44:00.146Z,92773.91
2023-03-06T04:46:27.468Z,92771.38
2023-03-06T04:48:55.197Z,92770.81
2023-03-06T04:51:22.615Z,92777.34
2023-03-06T04:53:50.258Z,92777.28
2023-03-06T04:56:18.110Z,92780.09
2023-03-06T04:58:45.569Z,92776.75
2023-03-06T05:01:13.046Z,92783.47
2023-03-06T05:03:41.000Z,92780.56
2023-03-06T05:06:08.634Z,92784.34
2023-03-06T05:08:35.986Z,92786.75
2023-03-06T05:11:04.041Z,92784.09
2023-03-06T05:13:31.370Z,92791.72
2023-03-06T05:16:03.858Z,92795.31
2023-03-06T05:18:32.799Z,92790.09
2023-03-06T05:21:00.766Z,92789.75
2023-03-06T05:23:30.192Z,92780.28
2023-03-06T05:25:58.355Z,92789.22
2023-03-06T05:28:26.551Z,92792.31
2023-03-06T05:30:53.872Z,92795.31
2023-03-06T05:33:21.570Z,92794.31
2023-03-06T05:35:49.679Z,92794.19
2023-03-06T05:38:18.577Z,92800.88
2023-03-06T05:40:46.701Z,92795.69
2023-03-06T05:43:14.068Z,92795.72
2023-03-06T05:45:41.776Z,92796.41
2023-03-06T05:48:12.205Z,92797.41
2023-03-06T05:50:40.004Z,92791.31
2023-03-06T05:53:07.349Z,92794.53
2023-03-06T05:55:35.106Z,92794.09
2023-03-06T05:58:02.401Z,92792.00
2023-03-06T06:00:29.782Z,92796.91
2023-03-06T06:03:00.727Z,92800.53
2023-03-06T06:05:28.187Z,92794.16
2023-03-06T06:07:55.509Z,92797.53
2023-03-06T06:10:23.181Z,92793.06
2023-03-06T06:12:50.470Z,92798.75
2023-03-06T06:15:18.048Z,92795.59
2023-03-06T06:17:45.875Z,92797.91
2023-03-06T06:20:13.960Z,92801.88
2023-03-06T06:22:41.497Z,92797.56
2023-03-06T06:25:09.498Z,92798.91
2023-03-06T06:27:36.848Z,92802.34
2023-03-06T06:30:05.551Z,92803.41
2023-03-06T06:32:33.368Z,92813.06
2023-03-06T06:35:00.753Z,92808.94
2023-03-06T06:37:28.237Z,92802.50
2023-03-06T06:39:55.905Z,92809.91
2023-03-06T06:42:33.332Z,92807.41
2023-03-06T06:45:05.397Z,92802.28
2023-03-06T06:47:34.443Z,92801.13
2023-03-06T06:50:02.045Z,92810.25
2023-03-06T06:52:29.746Z,92808.00
2023-03-06T06:54:57.018Z,92807.34
2023-03-06T06:57:24.366Z,92819.13
2023-03-06T06:59:53.969Z,92815.81
2023-03-06T07:02:22.784Z,92805.78
2023-03-06T07:05:03.196Z,92819.50
2023-03-06T07:07:35.244Z,92821.69
2023-03-06T07:10:08.925Z,92816.91
2023-03-06T07:12:37.226Z,92804.03
2023-03-06T07:15:06.312Z,92807.69
2023-03-06T07:17:33.835Z,92808.97
2023-03-06T07:20:01.603Z,92799.78
2023-03-06T07:22:31.960Z,92794.72
2023-03-06T07:25:06.333Z,92801.66
2023-03-06T07:27:33.652Z,92799.88
2023-03-06T07:30:01.046Z,92793.38
2023-03-06T07:32:28.919Z,92791.81
2023-03-06T07:35:12.925Z,92791.66
2023-03-06T07:37:44.615Z,92793.25
2023-03-06T07:40:12.600Z,92794.56
2023-03-06T07:42:39.930Z,92788.53
2023-03-06T07:45:12.502Z,92789.94
2023-03-06T07:47:39.960Z,92790.91
2023-03-06T07:50:08.036Z,92789.91
2023-03-06T07:52:35.799Z,92794.19
2023-03-06T07:55:03.226Z,92790.44
2023-03-06T07:57:30.788Z,92794.44
2023-03-06T07:59:58.374Z,92793.34
2023-03-06T08:02:25.842Z,92800.34
2023-03-06T08:04:54.934Z,92803.16
2023-03-06T08:07:23.141Z,92798.50
2023-03-06T08:09:50.784Z,92795.25
2023-03-06T08:12:18.396Z,92801.66
2023-03-06T08:14:45.722Z,92799.34
2023-03-06T08:17:13.077Z,92795.97
2023-03-06T08:19:40.752Z,92790.97
2023-03-06T08:22:08.245Z,92797.81
2023-03-06T08:24:35.549Z,92803.25
2023-03-06T08:27:03.779Z,92798.13
2023-03-06T08:29:32.295Z,92795.22
2023-03-06T08:31:59.811Z,92793.47
2023-03-06T08:34:27.507Z,92789.59
2023-03-06T08:36:54.918Z,92786.78
2023-03-06T08:39:23.861Z,92794.66
2023-03-06T08:41:51.526Z,92799.34
2023-03-06T08:44:18.781Z,92789.47
2023-03-06T08:46:46.154Z,92788.84
2023-03-06T08:49:14.101Z,92780.91
2023-03-06T08:51:42.646Z,92779.22
2023-03-06T08:54:13.099Z,92779.34
2023-03-06T08:56:40.915Z,92779.00
2023-03-06T08:59:09.573Z,92788.16
2023-03-06T09:01:38.723Z,92778.13
2023-03-06T09:04:12.014Z,92779.44
2023-03-06T09:06:42.568Z,92783.37
2023-03-06T09:09:10.623Z,92786.94
2023-03-06T09:11:38.340Z,92774.69
2023-03-06T09:14:06.011Z,92780.69
2023-03-06T09:16:33.897Z,92781.09
2023-03-06T09:19:01.277Z,92780.66
2023-03-06T09:21:28.890Z,92792.69
2023-03-06T09:23:57.151Z,92790.66
2023-03-06T09:26:32.762Z,92778.66
2023-03-06T09:29:03.857Z,92792.94
2023-03-06T09:31:32.258Z,92790.09
2023-03-06T09:33:59.557Z,92789.88
2023-03-06T09:36:27.254Z,92788.59
2023-03-06T09:38:54.609Z,92791.88
2023-03-06T09:41:30.434Z,92795.34
2023-03-06T09:44:14.804Z,92788.94
2023-03-06T09:47:00.666Z,92792.34
2023-03-06T09:50:09.950Z,92786.69
2023-03-06T09:53:06.905Z,92795.50
2023-03-06T09:55:39.852Z,92785.22
2023-03-06T09:58:22.311Z,92787.50
2023-03-06T10:00:59.238Z,92790.16
2023-03-06T10:03:39.632Z,92786.16
2023-03-06T10:06:13.245Z,92783.03
2023-03-06T10:08:52.749Z,92770.00
2023-03-06T10:11:26.484Z,92775.56
2023-03-06T10:14:07.936Z,92769.28
2023-03-06T10:16:35.346Z,92776.66
2023-03-06T10:19:10.516Z,92769.16
2023-03-06T10:22:03.372Z,92769.16
2023-03-06T10:24:57.740Z,92766.56
2023-03-06T10:27:43.994Z,92762.66
2023-03-06T10:30:14.672Z,92783.37
2023-03-06T10:32:58.691Z,92758.69
2023-03-06T10:35:34.892Z,92768.13
2023-03-06T10:38:24.240Z,92766.31
2023-03-06T10:40:59.741Z,92769.16
2023-03-06T10:43:27.755Z,92761.84
2023-03-06T10:45:55.830Z,92764.47
2023-03-06T10:48:26.464Z,92768.87
2023-03-06T10:51:28.306Z,92766.03
2023-03-06T10:54:01.809Z,92761.06
2023-03-06T10:56:43.694Z,92764.69
2023-03-06T10:59:21.675Z,92753.72
2023-03-06T11:01:51.222Z,92753.06
2023-03-06T11:04:33.905Z,92748.72
2023-03-06T11:07:28.659Z,92742.41
2023-03-06T11:09:59.360Z,92758.97
2023-03-06T11:12:40.986Z,92742.41
2023-03-06T11:15:14.816Z,92739.22
2023-03-06T11:17:53.917Z,92735.22
2023-03-06T11:20:41.232Z,92740.75
2023-03-06T11:23:22.074Z,92743.91
2023-03-06T11:25:56.518Z,92731.09
2023-03-06T11:28:46.313Z,92717.75
2023-03-06T11:31:21.208Z,92713.28
2023-03-06T11:33:59.134Z,92708.81
2023-03-06T11:36:33.930Z,92714.81
2023-03-06T11:39:04.886Z,92716.41
2023-03-06T11:41:58.330Z,92714.59
2023-03-06T11:44:43.827Z,92717.22
2023-03-06T11:47:16.800Z,92705.94
2023-03-06T11:49:49.956Z,92696.69
2023-03-06T11:52:56.315Z,92692.66
2023-03-06T11:55:50.988Z,92692.50
2023-03-06T11:59:00.985Z,92697.28
2023-03-06T12:01:50.345Z,92670.88
2023-03-06T12:04:48.836Z,92668.84
2023-03-06T12:07:22.056Z,92664.47
2023-03-06T12:09:55.400Z,92668.53
2023-03-06T12:12:31.230Z,92667.78
2023-03-06T12:15:15.503Z,92650.09
2023-03-06T12:18:06.155Z,92650.31
2023-03-06T12:21:17.340Z,92662.13
2023-03-06T12:24:05.086Z,92642.72
2023-03-06T12:26:57.045Z,92651.09
2023-03-06T12:29:33.801Z,92641.75
2023-03-06T12:32:23.158Z,92645.34
2023-03-06T12:35:08.925Z,92639.44
2023-03-06T12:38:08.890Z,92652.63
2023-03-06T12:41:00.617Z,92645.91
2023-03-06T12:43:40.617Z,92647.53
2023-03-06T12:46:17.780Z,92649.66
2023-03-06T12:49:08.351Z,92632.28
2023-03-06T12:51:36.842Z,92629.50
2023-03-06T12:54:04.641Z,92632.94
2023-03-06T12:56:33.593Z,92631.37
2023-03-06T12:59:02.745Z,92631.59
2023-03-06T13:01:55.744Z,92630.03
2023-03-06T13:04:47.993Z,92619.81
2023-03-06T13:07:43.894Z,92616.81
2023-03-06T13:10:28.006Z,92615.53
2023-03-06T13:13:01.318Z,92606.03
2023-03-06T13:15:40.890Z,92604.94
2023-03-06T13:18:24.192Z,92607.81
2023-03-06T13:20:56.202Z,92608.50
2023-03-06T13:23:30.238Z,92615.00
2023-03-06T13:26:00.035Z,92611.56
2023-03-06T13:28:50.372Z,92607.25
2023-03-06T13:31:36.579Z,92604.28
2023-03-06T13:34:05.485Z,92609.06
2023-03-06T13:36:39.559Z,92623.66
2023-03-06T13:39:09.747Z,92630.31
2023-03-06T13:41:58.531Z,92615.94
2023-03-06T13:44:26.043Z,92623.28
2023-03-06T13:47:02.453Z,92618.25
2023-03-06T13:49:30.707Z,92624.59
2023-03-06T13:52:11.002Z,92613.31
2023-03-06T13:54:44.596Z,92629.56
2023-03-06T13:57:15.022Z,92615.41
2023-03-06T14:00:08.957Z,92621.66
2023-03-06T14:02:43.431Z,92617.72
2023-03-06T14:05:14.026Z,92611.00
2023-03-06T14:07:48.087Z,92608.84
2023-03-06T14:10:21.416Z,92611.00
2023-03-06T14:12:49.094Z,92608.78
2023-03-06T14:15:46.147Z,92598.53
2023-03-06T14:18:16.918Z,92609.56
2023-03-06T14:20:50.603Z,92595.94
2023-03-06T14:23:21.387Z,92600.66
2023-03-06T14:25:55.538Z,92613.78
2023-03-06T14:28:31.646Z,92609.59
2023-03-06T14:31:01.352Z,92613.31
2023-03-06T14:33:37.477Z,92616.19
2023-03-06T14:36:09.578Z,92621.69
2023-03-06T14:38:45.417Z,92613.28
2023-03-06T14:41:14.145Z,92617.75
2023-03-06T14:43:41.930Z,92613.53
2023-03-06T14:46:20.222Z,92619.06
2023-03-06T14:48:49.356Z,92617.97
2023-03-06T14:51:18.687Z,92627.69
2023-03-06T14:53:49.135Z,92618.25
2023-03-06T14:56:20.391Z,92609.56
2023-03-06T14:59:03.267Z,92603.84
2023-03-06T15:01:51.204Z,92617.47
2023-03-06T15:05:04.352Z,92623.22
2023-03-06T15:07:33.594Z,92615.91
2023-03-06T15:10:01.275Z,92618.25
2023-03-06T15:12:31.330Z,92621.34
2023-03-06T15:15:10.659Z,92616.31
2023-03-06T15:17:48.456Z,92617.09
2023-03-06T15:21:05.322Z,92617.66
2023-03-06T15:23:38.645Z,92609.19
2023-03-06T15:26:29.368Z,92617.28
2023-03-06T15:29:09.429Z,92621.53
2023-03-06T15:31:42.762Z,92625.97
2023-03-06T15:34:10.044Z,92626.34
2023-03-06T15:36:49.214Z,92620.31
2023-03-06T15:39:36.463Z,92611.97
2023-03-06T15:42:18.327Z,92623.03
2023-03-06T15:44:51.308Z,92622.59
2023-03-06T15:47:19.676Z,92636.06
2023-03-06T15:49:52.088Z,92628.25
2023-03-06T15:52:21.644Z,92632.88
2023-03-06T15:54:49.456Z,92626.56
2023-03-06T15:57:25.382Z,92631.75
2023-03-06T15:59:54.055Z,92630.84
2023-03-06T16:02:23.719Z,92627.97
2023-03-06T16:04:53.623Z,92628.19
2023-03-06T16:07:21.032Z,92632.75
2023-03-06T16:09:48.855Z,92627.19
2023-03-06T16:12:21.650Z,92629.97
2023-03-06T16:14:49.646Z,92623.41
2023-03-06T16:17:17.656Z,92624.09
2023-03-06T16:19:44.886Z,92621.91
2023-03-06T16:22:12.329Z,92625.50
2023-03-06T16:24:40.002Z,92626.47
2023-03-06T16:27:15.392Z,92622.37
2023-03-06T16:29:43.041Z,92619.97
2023-03-06T16:32:11.366Z,92632.66
2023-03-06T16:34:38.745Z,92637.25
2023-03-06T16:37:06.595Z,92633.06
2023-03-06T16:39:34.072Z,92645.69
2023-03-06T16:42:01.409Z,92651.94
2023-03-06T16:44:29.062Z,92647.97
2023-03-06T16:46:56.370Z,92646.63
2023-03-06T16:49:25.523Z,92642.88
2023-03-06T16:51:53.726Z,92643.00
2023-03-06T16:54:21.997Z,92635.94
2023-03-06T16:56:49.341Z,92639.75
2023-03-06T16:59:17.275Z,92649.00
2023-03-06T17:01:44.834Z,92637.69
2023-03-06T17:04:12.697Z,92637.63
2023-03-06T17:06:41.707Z,92632.41
2023-03-06T17:09:11.091Z,92644.91
2023-03-06T17:11:43.572Z,92643.84
2023-03-06T17:14:11.217Z,92654.88
2023-03-06T17:16:40.586Z,92650.03
2023-03-06T17:19:08.034Z,92642.50
2023-03-06T17:21:38.547Z,92662.31
2023-03-06T17:24:06.698Z,92661.50
2023-03-06T17:26:36.709Z,92645.53
2023-03-06T17:29:06.928Z,92646.03
2023-03-06T17:31:34.390Z,92650.28
2023-03-06T17:34:01.748Z,92649.78
2023-03-06T17:36:31.906Z,92653.97
2023-03-06T17:39:01.024Z,92655.34
2023-03-06T17:41:28.794Z,92659.13
2023-03-06T17:43:56.590Z,92650.12
2023-03-06T17:46:24.416Z,92644.50
2023-03-06T17:48:52.105Z,92632.47
2023-03-06T17:51:19.457Z,92647.09
2023-03-06T17:53:46.887Z,92645.84
2023-03-06T17:56:15.768Z,92634.06
2023-03-06T17:58:43.101Z,92639.38
2023-03-06T18:01:16.844Z,92645.47
2023-03-06T18:03:46.621Z,92645.22
2023-03-06T18:06:14.950Z,92642.44
2023-03-06T18:08:43.187Z,92650.59
2023-03-06T18:11:11.506Z,92650.88
2023-03-06T18:13:42.673Z,92646.19
2023-03-06T18:16:12.340Z,92639.53
2023-03-06T18:18:40.514Z,92634.56
2023-03-06T18:21:10.377Z,92642.97
2023-03-06T18:23:38.361Z,92643.72
2023-03-06T18:26:15.504Z,92636.28
2023-03-06T18:28:48.468Z,92643.44
2023-03-06T18:31:26.804Z,92637.84
2023-03-06T18:33:59.315Z,92646.47
2023-03-06T18:36:29.933Z,92648.97
2023-03-06T18:38:57.663Z,92646.84
2023-03-06T18:41:25.340Z,92650.88
2023-03-06T18:43:55.480Z,92652.63
2023-03-06T18:46:23.692Z,92656.34
2023-03-06T18:48:51.293Z,92651.44
2023-03-06T18:51:20.339Z,92647.38
2023-03-06T18:53:47.837Z,92654.69
2023-03-06T18:56:21.035Z,92648.19
2023-03-06T18:58:50.481Z,92655.94
2023-03-06T19:01:18.079Z,92654.94
2023-03-06T19:03:46.096Z,92657.59
2023-03-06T19:06:17.046Z,92658.88
2023-03-06T19:08:45.117Z,92660.69
2023-03-06T19:11:14.968Z,92658.22
2023-03-06T19:13:43.125Z,92662.50
2023-03-06T19:16:18.503Z,92664.19
2023-03-06T19:18:46.251Z,92657.34
2023-03-06T19:21:16.722Z,92672.56
2023-03-06T19:23:44.490Z,92685.25
2023-03-06T19:26:12.830Z,92666.84
2023-03-06T19:28:41.856Z,92670.16
2023-03-06T19:31:20.668Z,92671.81
2023-03-06T19:33:49.400Z,92672.75
2023-03-06T19:36:17.672Z,92667.28
2023-03-06T19:38:45.598Z,92678.53
2023-03-06T19:41:15.416Z,92665.78
2023-03-06T19:43:43.479Z,92673.22
2023-03-06T19:46:14.378Z,92676.63
2023-03-06T19:48:42.989Z,92662.50
2023-03-06T19:51:11.109Z,92660.22
2023-03-06T19:53:40.336Z,92660.53
2023-03-06T19:56:09.498Z,92658.59
2023-03-06T19:58:37.539Z,92658.59
2023-03-06T20:01:11.905Z,92670.41
2023-03-06T20:03:40.880Z,92660.97
2023-03-06T20:06:13.847Z,92670.41
2023-03-06T20:08:43.241Z,92670.28
2023-03-06T20:11:20.608Z,92660.91
2023-03-06T20:13:48.927Z,92659.50
2023-03-06T20:16:19.778Z,92657.53
2023-03-06T20:18:47.215Z,92662.50
2023-03-06T20:21:15.662Z,92656.34
2023-03-06T20:23:43.528Z,92661.78
2023-03-06T20:26:13.072Z,92654.78
2023-03-06T20:28:42.160Z,92653.97
2023-03-06T20:31:29.815Z,92658.16
2023-03-06T20:33:59.752Z,92654.84
2023-03-06T20:36:31.374Z,92660.63
2023-03-06T20:39:00.794Z,92660.59
2023-03-06T20:41:29.811Z,92656.59
2023-03-06T20:43:58.806Z,92655.50
2023-03-06T20:46:27.096Z,92656.19
2023-03-06T20:48:55.103Z,92653.34
2023-03-06T20:51:28.924Z,92657.56
2023-03-06T20:53:56.842Z,92658.34
2023-03-06T20:56:26.629Z,92656.97
2023-03-06T20:58:54.233Z,92662.91
2023-03-06T21:01:24.520Z,92650.00
2023-03-06T21:03:53.595Z,92653.69
2023-03-06T21:06:21.599Z,92658.38
2023-03-06T21:08:50.073Z,92661.00
2023-03-06T21:11:18.312Z,92653.34
2023-03-06T21:13:45.804Z,92658.41
2023-03-06T21:16:19.075Z,92649.25
2023-03-06T21:18:47.405Z,92657.62
2023-03-06T21:21:18.642Z,92655.75
2023-03-06T21:23:46.988Z,92653.91
2023-03-06T21:26:17.562Z,92653.34
2023-03-06T21:28:45.080Z,92648.28
2023-03-06T21:31:14.750Z,92638.22
2023-03-06T21:33:43.765Z,92650.06
2023-03-06T21:36:11.551Z,92654.75
2023-03-06T21:38:39.365Z,92648.19
2023-03-06T21:41:12.958Z,92645.81
2023-03-06T21:43:40.920Z,92627.06
2023-03-06T21:46:09.390Z,92629.84
2023-03-06T21:48:37.084Z,92634.12
2023-03-06T21:51:10.672Z,92623.22
2023-03-06T21:53:41.216Z,92616.22
2023-03-06T21:56:09.195Z,92610.69
2023-03-06T21:58:37.111Z,92611.25
2023-03-06T22:01:18.772Z,92615.19
2023-03-06T22:03:46.621Z,92619.34
2023-03-06T22:06:17.352Z,92601.72
2023-03-06T22:08:45.489Z,92601.97
2023-03-06T22:11:16.033Z,92607.84
2023-03-06T22:13:44.200Z,92604.31
2023-03-06T22:16:12.918Z,92599.59
2023-03-06T22:18:44.173Z,92595.62
2023-03-06T22:21:13.538Z,92595.31
2023-03-06T22:23:41.189Z,92582.09
2023-03-06T22:26:13.776Z,92583.31
2023-03-06T22:28:42.208Z,92596.22
2023-03-06T22:31:14.840Z,92598.91
2023-03-06T22:33:43.150Z,92591.94
2023-03-06T22:36:13.846Z,92596.09
2023-03-06T22:38:43.926Z,92588.53
2023-03-06T22:41:13.442Z,92595.44
2023-03-06T22:43:41.103Z,92597.91
2023-03-06T22:46:14.665Z,92598.69
2023-03-06T22:48:42.650Z,92599.25
2023-03-06T22:51:20.972Z,92610.31
2023-03-06T22:53:49.017Z,92610.28
2023-03-06T22:56:18.790Z,92601.56
2023-03-06T22:58:46.621Z,92595.34
2023-03-06T23:01:20.325Z,92602.22
2023-03-06T23:03:50.109Z,92598.97
2023-03-06T23:06:24.247Z,92600.97
2023-03-06T23:08:54.590Z,92593.81
2023-03-06T23:11:23.626Z,92603.72
2023-03-06T23:14:12.309Z,92602.13
2023-03-06T23:16:58.303Z,92607.37
2023-03-06T23:19:44.036Z,92599.25
2023-03-06T23:22:30.081Z,92606.28
2023-03-06T23:25:15.780Z,92600.09
2023-03-06T23:27:43.434Z,92595.84
2023-03-06T23:30:11.425Z,92603.34
2023-03-06T23:32:38.881Z,92595.91
2023-03-06T23:35:07.827Z,92596.47
2023-03-06T23:37:35.077Z,92601.16
2023-03-06T23:40:02.498Z,92599.47
2023-03-06T23:42:30.238Z,92601.84
2023-03-06T23:44:57.543Z,92591.34
2023-03-06T23:47:25.044Z,92603.72
2023-03-06T23:49:52.671Z,92610.03
2023-03-06T23:52:19.974Z,92612.19
2023-03-06T23:54:49.280Z,92614.09
2023-03-06T23:57:17.011Z,92622.03
2023-03-06T23:59:44.781Z,92607.56
